createdAt,value
2022-10-17T00:04:28.627Z,4.87
2022-10-17T00:09:21.334Z,4.60
2022-10-17T00:14:14.423Z,3.97
2022-10-17T00:19:08.195Z,3.83
2022-10-17T00:24:02.183Z,6.17
2022-10-17T00:28:55.115Z,3.80
2022-10-17T00:33:48.245Z,3.90
2022-10-17T00:38:43.573Z,3.50
2022-10-17T00:44:04.408Z,8.67
2022-10-17T00:49:02.147Z,9.37
2022-10-17T00:53:55.002Z,8.53
2022-10-17T00:58:48.894Z,5.13
2022-10-17T01:03:42.508Z,6.70
2022-10-17T01:14:16.817Z,6.30
2022-10-17T01:19:27.761Z,5.23
2022-10-17T01:24:39.313Z,6.63
2022-10-17T01:29:47.998Z,5.07
2022-10-17T01:34:47.576Z,4.80
2022-10-17T01:39:48.544Z,4.13
2022-10-17T01:44:56.751Z,4.50
2022-10-17T01:49:57.235Z,4.33
2022-10-17T01:54:55.694Z,4.67
2022-10-17T01:59:51.889Z,4.80
2022-10-17T02:04:50.345Z,3.93
2022-10-17T02:09:43.207Z,6.43
2022-10-17T02:15:00.113Z,6.03
2022-10-17T02:20:29.819Z,5.47
2022-10-17T02:25:54.723Z,6.30
2022-10-17T02:31:02.895Z,5.67
2022-10-17T02:36:00.412Z,7.20
2022-10-17T02:40:54.685Z,8.07
2022-10-17T02:45:48.209Z,8.13
2022-10-17T02:50:43.448Z,10.17
2022-10-17T03:00:53.770Z,11.57
2022-10-17T03:05:46.513Z,11.03
2022-10-17T03:15:53.801Z,10.43
2022-10-17T03:20:46.753Z,15.83
2022-10-17T03:25:39.579Z,18.43
2022-10-17T03:30:32.640Z,16.80
2022-10-17T03:35:26.102Z,15.40
2022-10-17T03:40:18.963Z,14.53
2022-10-17T03:45:13.038Z,13.67
2022-10-17T03:50:06.182Z,18.23
2022-10-17T03:55:01.761Z,28.40
2022-10-17T03:59:55.268Z,29.93
2022-10-17T04:04:47.869Z,22.57
2022-10-17T04:09:41.161Z,22.43
2022-10-17T04:14:38.602Z,21.17
2022-10-17T04:19:31.143Z,27.33
2022-10-17T04:24:23.854Z,22.87
2022-10-17T04:29:36.409Z,28.23
2022-10-17T04:34:34.589Z,26.33
2022-10-17T04:39:27.390Z,25.33
2022-10-17T04:44:21.858Z,28.97
2022-10-17T04:49:17.784Z,21.90
2022-10-17T04:54:13.854Z,22.43
2022-10-17T04:59:09.033Z,22.47
2022-10-17T05:04:03.954Z,23.60
2022-10-17T05:09:24.679Z,25.20
2022-10-17T05:19:51.812Z,26.87
2022-10-17T05:24:58.363Z,25.60
2022-10-17T05:30:04.347Z,26.87
2022-10-17T05:59:23.333Z,34.70
2022-10-17T06:10:03.239Z,39.90
2022-10-17T06:15:00.681Z,41.57
2022-10-17T06:19:58.461Z,37.33
2022-10-17T06:24:52.869Z,40.90
2022-10-17T06:29:45.916Z,38.47
2022-10-17T06:34:38.906Z,38.20
2022-10-17T06:39:34.082Z,46.80
2022-10-17T06:45:07.507Z,44.43
2022-10-17T06:50:26.660Z,40.17
2022-10-17T06:55:36.563Z,37.37
2022-10-17T07:00:51.192Z,40.17
2022-10-17T07:05:52.238Z,45.53
2022-10-17T07:10:47.181Z,38.47
2022-10-17T07:15:40.659Z,41.43
2022-10-17T07:20:36.209Z,30.43
2022-10-17T07:25:30.310Z,26.93
2022-10-17T07:30:26.909Z,29.83
2022-10-17T07:35:26.314Z,34.93
2022-10-17T07:40:19.019Z,29.70
2022-10-17T07:45:11.819Z,27.33
2022-10-17T07:50:06.212Z,27.50
2022-10-17T07:55:00.191Z,28.03
2022-10-17T07:59:54.336Z,27.00
2022-10-17T08:04:46.746Z,26.97
2022-10-17T08:09:39.262Z,29.60
2022-10-17T08:14:32.041Z,29.67
2022-10-17T08:19:24.584Z,26.87
2022-10-17T08:24:17.344Z,26.70
2022-10-17T08:29:17.417Z,25.60
2022-10-17T08:34:09.738Z,26.37
2022-10-17T08:39:02.983Z,28.63
2022-10-17T08:43:59.794Z,24.90
2022-10-17T08:48:52.886Z,24.27
2022-10-17T08:54:29.329Z,25.60
2022-10-17T08:59:29.187Z,25.27
2022-10-17T09:04:49.048Z,28.20
2022-10-17T09:15:10.940Z,24.60
2022-10-17T09:20:06.572Z,21.37
2022-10-17T09:25:08.970Z,22.27
2022-10-17T09:30:47.482Z,22.17
2022-10-17T09:35:42.114Z,20.87
2022-10-17T09:40:40.827Z,21.40
2022-10-17T09:45:38.152Z,22.10
2022-10-17T09:50:36.349Z,21.30
2022-10-17T09:55:34.960Z,20.33
2022-10-17T10:00:41.292Z,21.73
2022-10-17T10:05:34.143Z,20.73
2022-10-17T10:10:29.369Z,20.20
2022-10-17T10:15:35.806Z,20.93
2022-10-17T10:20:37.739Z,20.33
2022-10-17T10:25:30.056Z,17.80
2022-10-17T10:30:29.075Z,17.65
2022-10-17T10:35:32.479Z,17.60
2022-10-17T10:40:32.654Z,19.30
2022-10-17T10:45:52.831Z,17.77
2022-10-17T10:50:49.088Z,18.17
2022-10-17T13:49:44.454Z,21.00
2022-10-17T13:54:40.659Z,20.80
2022-10-17T13:59:40.183Z,21.23
2022-10-17T14:04:57.809Z,21.07
2022-10-17T14:09:47.335Z,22.70
2022-10-17T14:15:08.678Z,22.30
2022-10-17T14:20:16.137Z,21.90
2022-10-17T14:25:32.653Z,23.37
2022-10-17T14:35:42.647Z,22.90
2022-10-17T14:40:35.757Z,24.60
2022-10-17T14:45:34.206Z,23.17
2022-10-17T14:50:29.583Z,23.57
2022-10-17T14:55:29.562Z,25.03
2022-10-17T15:00:22.834Z,27.33
2022-10-17T15:05:15.904Z,25.30
2022-10-17T15:10:26.448Z,23.73
2022-10-17T15:15:19.044Z,26.40
2022-10-17T15:20:16.695Z,25.93
2022-10-17T15:25:09.661Z,25.23
2022-10-17T15:30:02.126Z,26.77
2022-10-17T15:34:54.739Z,26.10
2022-10-17T15:39:53.729Z,27.07
2022-10-17T15:44:51.027Z,27.80
2022-10-17T15:49:43.569Z,28.07
2022-10-17T15:54:36.091Z,28.20
2022-10-17T15:59:33.667Z,28.00
2022-10-17T16:04:27.820Z,27.97
2022-10-17T16:09:20.366Z,27.33
2022-10-17T16:14:18.368Z,28.53
2022-10-17T16:19:12.960Z,28.30
2022-10-17T16:24:07.303Z,30.23
2022-10-17T16:29:03.849Z,28.13
2022-10-17T16:33:58.510Z,29.30
2022-10-17T16:38:52.671Z,28.07
2022-10-17T16:43:45.411Z,31.67
2022-10-17T16:53:30.624Z,32.20
2022-10-17T16:58:33.244Z,31.43
2022-10-17T17:03:26.633Z,28.67
2022-10-17T17:08:19.317Z,29.87
2022-10-17T17:13:12.171Z,29.93
2022-10-17T17:18:06.156Z,33.00
2022-10-17T17:22:58.956Z,27.77
2022-10-17T17:27:52.063Z,29.27
2022-10-17T17:32:45.162Z,33.80
2022-10-17T17:37:37.812Z,32.07
2022-10-17T17:42:33.067Z,32.20
2022-10-17T17:47:37.278Z,31.57
2022-10-17T17:52:30.964Z,31.37
2022-10-17T17:57:26.590Z,32.83
2022-10-17T18:02:19.342Z,31.67
2022-10-17T18:12:50.377Z,33.90
2022-10-17T18:17:45.731Z,38.53
2022-10-17T18:27:52.169Z,34.97
2022-10-17T18:32:49.731Z,37.07
2022-10-17T18:37:45.425Z,37.40
2022-10-17T18:42:39.147Z,34.60
2022-10-17T18:47:33.987Z,34.27
2022-10-17T18:52:33.651Z,34.23
2022-10-17T18:57:31.108Z,38.10
2022-10-17T19:02:38.093Z,43.07
2022-10-17T19:07:41.177Z,33.60
2022-10-17T19:12:35.325Z,32.60
2022-10-17T19:17:35.958Z,35.20
2022-10-17T19:22:33.567Z,33.50
2022-10-17T19:27:33.610Z,39.37
2022-10-17T19:32:26.789Z,46.93
2022-10-17T19:37:26.922Z,46.07
2022-10-17T19:42:24.359Z,38.60
2022-10-17T19:47:17.331Z,49.20
2022-10-17T19:52:11.889Z,42.60
2022-10-17T19:57:09.589Z,44.80
2022-10-17T20:02:05.297Z,45.07
2022-10-17T20:07:04.127Z,35.87
2022-10-17T20:18:40.157Z,37.37
2022-10-17T20:42:02.201Z,37.03
2022-10-17T20:47:02.229Z,40.57
2022-10-17T20:57:45.992Z,37.20
2022-10-17T21:02:45.059Z,48.93
2022-10-17T21:07:38.953Z,39.30
2022-10-17T21:12:50.059Z,36.63
2022-10-17T21:17:51.573Z,38.23
2022-10-17T21:22:46.206Z,40.90
2022-10-17T21:27:40.879Z,33.43
2022-10-17T21:32:51.074Z,42.07
2022-10-17T21:37:44.348Z,47.03
2022-10-17T21:42:37.151Z,44.47
2022-10-17T21:47:30.039Z,47.00
2022-10-17T21:52:29.217Z,40.73
2022-10-17T21:57:21.992Z,96.30
2022-10-17T22:02:17.090Z,47.57
2022-10-17T22:07:13.179Z,56.40
2022-10-17T22:12:06.559Z,48.23
2022-10-17T22:16:59.166Z,46.30
2022-10-17T22:21:52.270Z,48.90
2022-10-17T22:31:53.267Z,43.47
2022-10-17T22:36:48.008Z,43.73
2022-10-17T22:41:40.418Z,42.57
2022-10-17T22:46:33.189Z,41.77
2022-10-17T22:51:25.974Z,44.20
2022-10-17T22:56:21.210Z,47.63
2022-10-17T23:01:16.649Z,49.70
2022-10-17T23:06:09.969Z,52.40
2022-10-17T23:11:02.947Z,46.83
2022-10-17T23:15:58.254Z,50.10
2022-10-17T23:20:51.421Z,38.80
2022-10-17T23:32:57.180Z,49.57
2022-10-17T23:37:51.523Z,42.87
2022-10-17T23:42:48.083Z,41.97
2022-10-17T23:47:40.583Z,44.50
2022-10-17T23:52:34.081Z,40.83
2022-10-17T23:57:26.595Z,42.90
